Time;durP1;ratioP1;P1;durP2;ratioP2;P2;SDS_P1;SDS_P2;PMS_P1;PMS_P2;Temp;Humidity;BMP_temperature;BMP_pressure;BME280_temperature;BME280_humidity;BME280_pressure;Samples;Min_cycle;Max_cycle;Signal;HPM_P1;HPM_P2
2023/02/25 00:01:26;;;;;;;17.02;11.23;;;;;;;;;;5053819;28;20493;-77
2023/02/25 00:03:52;;;;;;;20.40;11.95;;;;;;;;;;5054165;28;20025;-78
2023/02/25 00:06:20;;;;;;;20.52;11.60;;;;;;;;;;5053863;28;20025;-78
2023/02/25 00:08:47;;;;;;;18.98;12.30;;;;;;;;;;5053418;28;20134;-77
2023/02/25 00:11:14;;;;;;;20.50;11.80;;;;;;;;;;5053675;28;20059;-78
2023/02/25 00:13:40;;;;;;;17.58;11.60;;;;;;;;;;5035993;28;20051;-77
2023/02/25 00:16:07;;;;;;;20.38;12.50;;;;;;;;;;5035926;28;20029;-77
2023/02/25 00:18:33;;;;;;;21.55;12.60;;;;;;;;;;5059294;28;20491;-77
2023/02/25 00:21:13;;;;;;;24.73;13.68;;;;;;;;;;5055096;28;20024;-77
2023/02/25 00:23:39;;;;;;;18.50;11.82;;;;;;;;;;5073535;28;20064;-77
2023/02/25 00:26:07;;;;;;;20.17;12.40;;;;;;;;;;5073327;28;20049;-77
2023/02/25 00:28:34;;;;;;;17.42;11.13;;;;;;;;;;5073891;28;20016;-79
2023/02/25 00:31:00;;;;;;;21.90;13.02;;;;;;;;;;5075985;28;20402;-77
2023/02/25 00:33:26;;;;;;;23.13;12.20;;;;;;;;;;5073450;28;20016;-76
2023/02/25 00:35:52;;;;;;;21.77;13.32;;;;;;;;;;5072930;28;20025;-77
2023/02/25 00:38:18;;;;;;;22.77;12.60;;;;;;;;;;5072724;28;20017;-77
2023/02/25 00:40:44;;;;;;;17.50;11.82;;;;;;;;;;5055133;28;20020;-77
2023/02/25 00:43:10;;;;;;;21.23;12.38;;;;;;;;;;5072977;28;20027;-75
2023/02/25 00:45:38;;;;;;;17.90;11.93;;;;;;;;;;5075152;28;20024;-77
2023/02/25 00:48:04;;;;;;;17.67;11.85;;;;;;;;;;5059923;28;20397;-77
2023/02/25 00:50:30;;;;;;;18.33;12.27;;;;;;;;;;5078129;28;20024;-77
2023/02/25 00:52:56;;;;;;;19.50;13.20;;;;;;;;;;5077490;28;20022;-78
2023/02/25 00:55:22;;;;;;;17.88;12.02;;;;;;;;;;5072906;28;20017;-78
2023/02/25 00:57:48;;;;;;;23.20;13.73;;;;;;;;;;5054763;28;20025;-75
2023/02/25 01:00:15;;;;;;;21.73;13.15;;;;;;;;;;5073058;28;20024;-78
2023/02/25 01:02:41;;;;;;;21.83;13.60;;;;;;;;;;5054841;28;20143;-78
2023/02/25 01:05:09;;;;;;;21.48;12.25;;;;;;;;;;5072830;28;20390;-78
2023/02/25 01:07:36;;;;;;;23.25;11.57;;;;;;;;;;5075801;28;20111;-79
2023/02/25 01:10:03;;;;;;;20.40;13.50;;;;;;;;;;5076508;28;20107;-78
2023/02/25 01:12:29;;;;;;;19.27;11.43;;;;;;;;;;5074201;28;20115;-79
2023/02/25 01:14:55;;;;;;;20.75;11.60;;;;;;;;;;5073968;28;20016;-78
2023/02/25 01:17:21;;;;;;;24.95;11.75;;;;;;;;;;5072794;28;20021;-78
2023/02/25 01:19:47;;;;;;;21.38;12.43;;;;;;;;;;5072462;28;20035;-78
2023/02/25 01:22:13;;;;;;;22.98;11.63;;;;;;;;;;5072018;28;20166;-78
2023/02/25 01:24:40;;;;;;;20.70;11.52;;;;;;;;;;5072337;28;20062;-78
2023/02/25 01:27:06;;;;;;;22.08;11.05;;;;;;;;;;5071847;28;20050;-83
2023/02/25 01:29:34;;;;;;;20.23;10.57;;;;;;;;;;5072262;28;20017;-79
2023/02/25 01:32:01;;;;;;;16.30;10.20;;;;;;;;;;5072519;28;20020;-79
2023/02/25 01:34:28;;;;;;;16.83;9.88;;;;;;;;;;5072018;28;20025;-77
2023/02/25 01:36:54;;;;;;;14.13;9.90;;;;;;;;;;5072131;28;20054;-76
2023/02/25 01:39:21;;;;;;;18.48;9.65;;;;;;;;;;5071881;28;20052;-77
2023/02/25 01:41:49;;;;;;;20.60;9.25;;;;;;;;;;5072318;28;20103;-74
2023/02/25 01:44:18;;;;;;;16.55;9.93;;;;;;;;;;5073456;28;20103;-76
2023/02/25 01:46:52;;;;;;;18.27;9.63;;;;;;;;;;5055391;28;20025;-78
2023/02/25 01:49:19;;;;;;;17.40;9.77;;;;;;;;;;5054748;28;20017;-77
2023/02/25 01:51:47;;;;;;;16.90;9.38;;;;;;;;;;5072336;28;20171;-78
2023/02/25 01:54:14;;;;;;;19.88;9.05;;;;;;;;;;5071784;28;20028;-77
2023/02/25 01:56:41;;;;;;;19.15;9.18;;;;;;;;;;5071927;28;20063;-78
2023/02/25 01:59:08;;;;;;;15.50;7.85;;;;;;;;;;5053976;28;20032;-79
2023/02/25 02:01:36;;;;;;;12.82;6.97;;;;;;;;;;5071853;28;20029;-78
2023/02/25 02:04:03;;;;;;;17.67;8.57;;;;;;;;;;5071782;28;20613;-79
2023/02/25 02:06:32;;;;;;;18.48;7.78;;;;;;;;;;5071614;28;20033;-77
2023/02/25 02:08:59;;;;;;;16.83;7.00;;;;;;;;;;5071281;28;20471;-79
2023/02/25 02:11:25;;;;;;;13.88;6.15;;;;;;;;;;5073889;28;20025;-78
2023/02/25 02:13:55;;;;;;;17.60;6.85;;;;;;;;;;5074565;28;20031;-80
2023/02/25 02:16:30;;;;;;;16.95;6.47;;;;;;;;;;5075453;28;20046;-79
2023/02/25 02:18:57;;;;;;;10.10;6.05;;;;;;;;;;5056139;28;20033;-80
2023/02/25 02:21:29;;;;;;;17.95;6.90;;;;;;;;;;5074280;28;20375;-79
2023/02/25 02:23:58;;;;;;;14.73;5.63;;;;;;;;;;5077706;28;20036;-80
2023/02/25 02:26:30;;;;;;;12.00;5.80;;;;;;;;;;5076569;28;20111;-78
2023/02/25 02:29:15;;;;;;;13.60;5.80;;;;;;;;;;5075158;28;20494;-77
2023/02/25 02:31:56;;;;;;;13.02;5.53;;;;;;;;;;5075338;28;20380;-78
2023/02/25 02:34:41;;;;;;;15.85;5.50;;;;;;;;;;5075317;28;20450;-77
2023/02/25 02:37:07;;;;;;;12.48;5.07;;;;;;;;;;5057141;28;20115;-75
2023/02/25 02:39:48;;;;;;;17.15;5.07;;;;;;;;;;5075321;28;20025;-76
2023/02/25 02:42:26;;;;;;;15.48;4.80;;;;;;;;;;5075245;28;20021;-78
2023/02/25 02:44:56;;;;;;;15.38;4.63;;;;;;;;;;5075774;28;20147;-80
2023/02/25 02:47:27;;;;;;;9.80;4.55;;;;;;;;;;5076338;28;20123;-82
2023/02/25 02:50:00;;;;;;;13.52;5.03;;;;;;;;;;5076973;28;20028;-79
2023/02/25 02:52:30;;;;;;;11.80;4.15;;;;;;;;;;5058141;28;20020;-79
2023/02/25 02:55:00;;;;;;;15.75;5.50;;;;;;;;;;5076853;28;20132;-79
2023/02/25 02:57:28;;;;;;;13.88;4.32;;;;;;;;;;5057067;28;20033;-78
2023/02/25 02:59:56;;;;;;;17.40;4.60;;;;;;;;;;5074868;28;20094;-78
2023/02/25 03:02:28;;;;;;;14.93;5.43;;;;;;;;;;5057133;28;20027;-81
2023/02/25 03:04:57;;;;;;;16.15;5.55;;;;;;;;;;5074986;28;20025;-77
2023/02/25 03:07:23;;;;;;;19.50;5.22;;;;;;;;;;5075226;28;20021;-78
2023/02/25 03:09:51;;;;;;;14.13;4.32;;;;;;;;;;5074644;28;20050;-78
2023/02/25 03:12:17;;;;;;;10.40;4.00;;;;;;;;;;5074584;28;20528;-78
2023/02/25 03:14:43;;;;;;;10.43;4.68;;;;;;;;;;5074726;28;20279;-79
2023/02/25 03:17:11;;;;;;;14.90;4.45;;;;;;;;;;5074514;28;20028;-78
2023/02/25 03:19:46;;;;;;;14.55;4.20;;;;;;;;;;5074298;28;20050;-78
2023/02/25 03:22:14;;;;;;;11.20;4.30;;;;;;;;;;5074177;28;20040;-77
2023/02/25 03:25:03;;;;;;;19.50;5.13;;;;;;;;;;5074326;28;20075;-77
2023/02/25 03:27:33;;;;;;;8.57;3.83;;;;;;;;;;5074086;28;20123;-79
2023/02/25 03:30:17;;;;;;;11.23;3.90;;;;;;;;;;5056422;28;20338;-77
2023/02/25 03:32:47;;;;;;;14.18;4.10;;;;;;;;;;5074188;28;20044;-78
2023/02/25 03:35:15;;;;;;;13.85;4.18;;;;;;;;;;5073339;28;20024;-75
2023/02/25 03:37:43;;;;;;;11.77;3.22;;;;;;;;;;5074273;28;20378;-78
2023/02/25 03:40:13;;;;;;;10.40;3.08;;;;;;;;;;5074293;28;20078;-78
2023/02/25 03:42:45;;;;;;;15.17;3.80;;;;;;;;;;5074219;28;20028;-76
2023/02/25 03:45:13;;;;;;;9.27;2.80;;;;;;;;;;5074195;28;20297;-79
2023/02/25 03:47:39;;;;;;;8.38;2.88;;;;;;;;;;5073838;28;20569;-78
2023/02/25 03:50:05;;;;;;;10.20;3.60;;;;;;;;;;5056881;28;20023;-79
2023/02/25 03:52:31;;;;;;;15.48;4.03;;;;;;;;;;5061673;28;20025;-77
2023/02/25 03:54:58;;;;;;;12.85;3.25;;;;;;;;;;5053943;28;20027;-77
2023/02/25 03:57:25;;;;;;;14.68;3.63;;;;;;;;;;5053479;28;20057;-79
2023/02/25 03:59:55;;;;;;;11.80;3.53;;;;;;;;;;5053752;28;20082;-77
2023/02/25 04:02:22;;;;;;;12.70;3.10;;;;;;;;;;5053447;28;20029;-77
2023/02/25 04:04:48;;;;;;;10.55;3.08;;;;;;;;;;5053911;28;20029;-77
2023/02/25 04:07:14;;;;;;;15.48;3.70;;;;;;;;;;5053268;28;20036;-77
2023/02/25 04:09:40;;;;;;;14.73;4.18;;;;;;;;;;5053594;28;20387;-78
2023/02/25 04:12:07;;;;;;;9.20;3.63;;;;;;;;;;5053515;28;20021;-77
2023/02/25 04:14:33;;;;;;;11.48;3.60;;;;;;;;;;5053551;28;20020;-77
2023/02/25 04:16:59;;;;;;;10.82;3.28;;;;;;;;;;5053498;28;20461;-76
2023/02/25 04:19:25;;;;;;;7.78;3.47;;;;;;;;;;5053315;28;20024;-77
2023/02/25 04:21:51;;;;;;;15.63;4.75;;;;;;;;;;5053178;28;20491;-76
2023/02/25 04:24:17;;;;;;;11.38;3.83;;;;;;;;;;5053314;28;20064;-76
2023/02/25 04:26:43;;;;;;;12.50;4.65;;;;;;;;;;5053348;28;20060;-75
2023/02/25 04:29:09;;;;;;;10.73;4.53;;;;;;;;;;5052828;28;20414;-76
2023/02/25 04:31:35;;;;;;;6.65;2.58;;;;;;;;;;5053089;28;20025;-78
2023/02/25 04:34:01;;;;;;;6.70;2.88;;;;;;;;;;5053034;28;20029;-77
2023/02/25 04:36:29;;;;;;;4.45;1.75;;;;;;;;;;5035235;28;20032;-75
2023/02/25 04:38:55;;;;;;;3.72;1.70;;;;;;;;;;5034835;28;20104;-75
2023/02/25 04:41:22;;;;;;;3.05;1.60;;;;;;;;;;5053016;28;20040;-76
2023/02/25 04:43:48;;;;;;;2.90;1.80;;;;;;;;;;5065428;28;20050;-75
2023/02/25 04:46:14;;;;;;;2.85;1.80;;;;;;;;;;5072143;28;20021;-77
2023/02/25 04:48:40;;;;;;;6.57;2.30;;;;;;;;;;5072540;28;20016;-77
2023/02/25 04:51:06;;;;;;;3.55;1.75;;;;;;;;;;5070422;28;20070;-77
2023/02/25 04:53:33;;;;;;;4.30;2.10;;;;;;;;;;5052804;28;20025;-77
2023/02/25 04:56:03;;;;;;;7.15;2.50;;;;;;;;;;5052749;28;20518;-77
2023/02/25 04:58:29;;;;;;;6.57;2.40;;;;;;;;;;5052359;28;20251;-77
2023/02/25 05:00:56;;;;;;;6.30;2.72;;;;;;;;;;5052728;28;20029;-79
2023/02/25 05:03:24;;;;;;;5.13;2.95;;;;;;;;;;5052732;28;20032;-76
2023/02/25 05:05:50;;;;;;;10.10;4.03;;;;;;;;;;5052749;28;20047;-78
2023/02/25 05:08:16;;;;;;;5.90;3.40;;;;;;;;;;5052488;28;20025;-78
2023/02/25 05:10:42;;;;;;;6.88;3.58;;;;;;;;;;5052568;28;20151;-78
2023/02/25 05:13:08;;;;;;;6.50;3.40;;;;;;;;;;5034708;28;20471;-77
2023/02/25 05:15:34;;;;;;;6.07;3.78;;;;;;;;;;5052696;28;20021;-77
2023/02/25 05:18:00;;;;;;;6.72;3.33;;;;;;;;;;5052207;28;20056;-76
2023/02/25 05:20:27;;;;;;;7.13;3.38;;;;;;;;;;5052371;28;20453;-77
2023/02/25 05:22:53;;;;;;;5.32;3.13;;;;;;;;;;5052240;28;20063;-77
2023/02/25 05:25:19;;;;;;;5.90;3.67;;;;;;;;;;5052235;28;20028;-77
2023/02/25 05:27:45;;;;;;;6.32;3.22;;;;;;;;;;5051699;28;20083;-76
2023/02/25 05:30:12;;;;;;;4.40;3.75;;;;;;;;;;5052059;28;20025;-76
2023/02/25 05:32:38;;;;;;;6.25;3.38;;;;;;;;;;5052185;28;20395;-75
2023/02/25 05:35:07;;;;;;;7.13;3.20;;;;;;;;;;5051906;28;20320;-75
2023/02/25 05:37:33;;;;;;;5.57;3.38;;;;;;;;;;5033858;28;20021;-77
2023/02/25 05:40:00;;;;;;;5.97;3.28;;;;;;;;;;5052232;28;20108;-78
2023/02/25 05:42:26;;;;;;;7.28;3.40;;;;;;;;;;5052532;28;20108;-76
2023/02/25 05:44:52;;;;;;;6.60;3.35;;;;;;;;;;5072473;28;20406;-77
2023/02/25 05:47:18;;;;;;;5.88;4.00;;;;;;;;;;5072520;28;20470;-77
2023/02/25 05:49:44;;;;;;;7.82;3.78;;;;;;;;;;5077927;28;20025;-76
2023/02/25 05:52:10;;;;;;;6.38;3.80;;;;;;;;;;5069273;28;20391;-77
2023/02/25 05:54:37;;;;;;;6.50;4.20;;;;;;;;;;5060700;28;20013;-76
2023/02/25 05:57:03;;;;;;;4.75;3.55;;;;;;;;;;5036506;28;20028;-76
2023/02/25 05:59:29;;;;;;;6.63;3.70;;;;;;;;;;5051932;28;20040;-76
2023/02/25 06:01:55;;;;;;;4.93;3.78;;;;;;;;;;5052346;28;20040;-76
2023/02/25 06:04:21;;;;;;;3.50;2.97;;;;;;;;;;5051696;28;20036;-76
2023/02/25 06:06:49;;;;;;;5.63;3.28;;;;;;;;;;5051630;28;20024;-76
2023/02/25 06:09:17;;;;;;;4.78;3.13;;;;;;;;;;5051535;28;20045;-76
2023/02/25 06:11:44;;;;;;;6.88;3.85;;;;;;;;;;5051660;28;20025;-78
2023/02/25 06:14:10;;;;;;;4.70;3.45;;;;;;;;;;5051688;28;20074;-76
2023/02/25 06:16:37;;;;;;;5.32;3.85;;;;;;;;;;5051585;28;20029;-75
2023/02/25 06:19:05;;;;;;;5.25;3.60;;;;;;;;;;5051279;28;20036;-76
2023/02/25 06:21:32;;;;;;;4.57;3.70;;;;;;;;;;5052564;28;20132;-76
2023/02/25 06:23:58;;;;;;;5.72;4.50;;;;;;;;;;5051465;28;20028;-77
2023/02/25 06:26:24;;;;;;;6.05;4.53;;;;;;;;;;5051639;28;20025;-76
2023/02/25 06:28:50;;;;;;;6.53;4.60;;;;;;;;;;5051393;28;20343;-77
2023/02/25 06:31:18;;;;;;;6.72;4.57;;;;;;;;;;5033741;28;20025;-77
2023/02/25 06:33:45;;;;;;;10.27;5.38;;;;;;;;;;5051324;28;20026;-75
2023/02/25 06:36:11;;;;;;;6.75;5.55;;;;;;;;;;5050784;28;20021;-76
2023/02/25 06:38:38;;;;;;;5.80;4.55;;;;;;;;;;5048993;28;20139;-76
2023/02/25 06:41:08;;;;;;;7.05;5.22;;;;;;;;;;5049522;28;20096;-75
2023/02/25 06:43:34;;;;;;;10.02;5.97;;;;;;;;;;5049353;28;20501;-76
2023/02/25 06:46:03;;;;;;;9.10;5.35;;;;;;;;;;5049400;28;20536;-76
2023/02/25 06:48:29;;;;;;;9.32;6.15;;;;;;;;;;5050634;28;20040;-75
2023/02/25 06:50:55;;;;;;;9.77;5.80;;;;;;;;;;5051621;28;20540;-76
2023/02/25 06:53:21;;;;;;;10.13;6.70;;;;;;;;;;5071040;28;20036;-76
2023/02/25 06:55:47;;;;;;;8.57;4.50;;;;;;;;;;5071237;28;20226;-76
2023/02/25 06:58:13;;;;;;;7.63;5.68;;;;;;;;;;5070631;28;20542;-76
2023/02/25 07:00:42;;;;;;;10.93;5.18;;;;;;;;;;5071041;28;20029;-77
2023/02/25 07:03:10;;;;;;;8.88;5.38;;;;;;;;;;5071140;28;20028;-77
2023/02/25 07:05:36;;;;;;;7.13;5.25;;;;;;;;;;5071036;28;20035;-76
2023/02/25 07:08:02;;;;;;;7.82;5.20;;;;;;;;;;5070750;28;20024;-77
2023/02/25 07:10:28;;;;;;;10.05;5.07;;;;;;;;;;5073566;28;20108;-77
2023/02/25 07:12:54;;;;;;;11.13;5.35;;;;;;;;;;5056959;28;20048;-77
2023/02/25 07:15:21;;;;;;;8.63;4.88;;;;;;;;;;5074695;28;20497;-77
2023/02/25 07:17:47;;;;;;;11.65;5.30;;;;;;;;;;5074369;28;20132;-76
2023/02/25 07:20:13;;;;;;;12.27;5.80;;;;;;;;;;5074430;28;20029;-77
2023/02/25 07:22:40;;;;;;;10.77;4.50;;;;;;;;;;5074366;28;20135;-77
2023/02/25 07:25:07;;;;;;;8.45;4.60;;;;;;;;;;5074633;28;20024;-77
2023/02/25 07:27:33;;;;;;;10.18;4.38;;;;;;;;;;5074233;28;20020;-77
2023/02/25 07:30:00;;;;;;;6.30;4.13;;;;;;;;;;5074425;28;20090;-76
2023/02/25 07:32:26;;;;;;;12.63;4.15;;;;;;;;;;5074441;28;20017;-76
2023/02/25 07:34:52;;;;;;;9.98;4.28;;;;;;;;;;5056241;28;20024;-76
2023/02/25 07:37:18;;;;;;;8.90;3.50;;;;;;;;;;5073853;28;20052;-75
2023/02/25 07:39:44;;;;;;;4.95;3.20;;;;;;;;;;5074223;28;20051;-76
2023/02/25 07:42:10;;;;;;;9.02;4.07;;;;;;;;;;5074133;28;20501;-77
2023/02/25 07:44:36;;;;;;;7.25;3.67;;;;;;;;;;5074015;28;20031;-77
2023/02/25 07:47:02;;;;;;;5.72;3.72;;;;;;;;;;5073743;28;20398;-77
2023/02/25 07:49:28;;;;;;;6.03;3.78;;;;;;;;;;5055694;28;20028;-77
2023/02/25 07:51:54;;;;;;;6.20;3.60;;;;;;;;;;5046899;28;20075;-77
2023/02/25 07:54:21;;;;;;;9.38;4.60;;;;;;;;;;5053792;28;20475;-76
2023/02/25 07:56:50;;;;;;;6.78;3.78;;;;;;;;;;5036140;28;20375;-77
2023/02/25 07:59:16;;;;;;;7.07;3.58;;;;;;;;;;5053583;28;20024;-77
2023/02/25 08:01:43;;;;;;;6.82;3.97;;;;;;;;;;5053704;28;20036;-77
2023/02/25 08:04:09;;;;;;;5.70;3.97;;;;;;;;;;5053920;28;20033;-77
2023/02/25 08:06:37;;;;;;;5.88;4.10;;;;;;;;;;5035490;28;20028;-77
2023/02/25 08:09:04;;;;;;;4.18;3.55;;;;;;;;;;5053268;28;20021;-77
2023/02/25 08:11:31;;;;;;;8.68;4.40;;;;;;;;;;5053515;28;20024;-77
2023/02/25 08:13:59;;;;;;;6.65;3.63;;;;;;;;;;5035887;28;20021;-77
2023/02/25 08:16:25;;;;;;;6.68;4.50;;;;;;;;;;5035851;28;20439;-77
2023/02/25 08:18:52;;;;;;;6.03;4.30;;;;;;;;;;5053634;28;20390;-77
2023/02/25 08:21:20;;;;;;;9.70;4.60;;;;;;;;;;5053540;28;20090;-77
2023/02/25 08:23:47;;;;;;;8.45;4.35;;;;;;;;;;5054331;28;20116;-77
2023/02/25 08:26:16;;;;;;;7.75;5.03;;;;;;;;;;5054480;28;20017;-79
2023/02/25 08:28:42;;;;;;;10.00;4.22;;;;;;;;;;5054278;28;20024;-76
2023/02/25 08:31:10;;;;;;;7.22;4.68;;;;;;;;;;5055387;28;20024;-76
2023/02/25 08:33:38;;;;;;;9.70;4.93;;;;;;;;;;5055774;28;20104;-76
2023/02/25 08:36:11;;;;;;;8.50;4.43;;;;;;;;;;5054954;28;20046;-77
2023/02/25 08:38:38;;;;;;;5.95;5.00;;;;;;;;;;5055266;28;20052;-76
2023/02/25 08:41:04;;;;;;;7.22;4.60;;;;;;;;;;5036337;28;20032;-76
2023/02/25 08:43:31;;;;;;;7.30;4.50;;;;;;;;;;5053674;28;20024;-75
2023/02/25 08:45:57;;;;;;;5.50;3.88;;;;;;;;;;5035555;28;20036;-76
2023/02/25 08:48:23;;;;;;;5.97;3.85;;;;;;;;;;5035138;28;20056;-76
2023/02/25 08:50:49;;;;;;;4.60;3.20;;;;;;;;;;5035754;28;20537;-77
2023/02/25 08:53:15;;;;;;;5.80;3.17;;;;;;;;;;5074308;28;20047;-76
2023/02/25 08:55:41;;;;;;;5.72;2.95;;;;;;;;;;5073827;28;20070;-77
2023/02/25 08:58:08;;;;;;;6.68;3.28;;;;;;;;;;5073723;28;20050;-76
2023/02/25 09:00:35;;;;;;;4.70;3.20;;;;;;;;;;5073604;28;20049;-76
2023/02/25 09:03:01;;;;;;;7.53;3.22;;;;;;;;;;5054901;28;20491;-78
2023/02/25 09:05:27;;;;;;;2.58;2.38;;;;;;;;;;5054924;28;20163;-76
2023/02/25 09:07:54;;;;;;;5.85;3.03;;;;;;;;;;5054272;28;20476;-77
2023/02/25 09:10:20;;;;;;;3.47;2.03;;;;;;;;;;5054585;28;20048;-76
2023/02/25 09:12:47;;;;;;;1.90;1.70;;;;;;;;;;5054038;28;20024;-75
2023/02/25 09:15:13;;;;;;;3.33;1.92;;;;;;;;;;5072437;28;20029;-77
2023/02/25 09:17:40;;;;;;;7.30;2.20;;;;;;;;;;5071980;28;20032;-77
2023/02/25 09:20:06;;;;;;;2.05;1.75;;;;;;;;;;5072340;28;20493;-77
2023/02/25 09:22:37;;;;;;;2.42;1.73;;;;;;;;;;5071915;28;20285;-77
2023/02/25 09:25:03;;;;;;;1.83;1.27;;;;;;;;;;5071922;28;20096;-77
2023/02/25 09:27:29;;;;;;;3.10;1.63;;;;;;;;;;5071941;28;20040;-76
2023/02/25 09:29:55;;;;;;;2.05;1.25;;;;;;;;;;5071827;28;20028;-77
2023/02/25 09:32:21;;;;;;;1.73;1.23;;;;;;;;;;5071413;28;20433;-77
2023/02/25 09:34:48;;;;;;;2.53;1.73;;;;;;;;;;5072424;28;20573;-77
2023/02/25 09:37:15;;;;;;;1.20;1.10;;;;;;;;;;5054377;28;20036;-77
2023/02/25 09:39:44;;;;;;;2.20;1.30;;;;;;;;;;5072928;28;20498;-77
2023/02/25 09:42:13;;;;;;;2.90;1.45;;;;;;;;;;5071871;28;20029;-77
2023/02/25 09:44:41;;;;;;;6.03;1.40;;;;;;;;;;5072222;28;20033;-76
2023/02/25 09:47:25;;;;;;;1.67;1.58;;;;;;;;;;5071343;28;20467;-74
2023/02/25 09:49:55;;;;;;;3.10;1.77;;;;;;;;;;5071995;28;20028;-77
2023/02/25 09:52:27;;;;;;;2.88;1.60;;;;;;;;;;5058499;28;20086;-77
2023/02/25 09:54:59;;;;;;;3.53;2.05;;;;;;;;;;5033655;28;20021;-77
2023/02/25 09:57:25;;;;;;;4.15;1.48;;;;;;;;;;5064622;28;20253;-75
2023/02/25 09:59:54;;;;;;;4.63;1.40;;;;;;;;;;5069686;28;20024;-77
2023/02/25 10:02:36;;;;;;;2.75;1.52;;;;;;;;;;5069482;28;20482;-76
2023/02/25 10:05:06;;;;;;;8.93;2.20;;;;;;;;;;5069412;28;20025;-76
2023/02/25 10:07:34;;;;;;;3.20;2.00;;;;;;;;;;5069288;28;20031;-76
2023/02/25 10:10:15;;;;;;;2.95;2.10;;;;;;;;;;5069572;28;20017;-76
2023/02/25 10:13:01;;;;;;;2.60;1.55;;;;;;;;;;5069696;28;20493;-76
2023/02/25 10:15:42;;;;;;;1.95;1.30;;;;;;;;;;5071605;28;20085;-77
2023/02/25 10:18:17;;;;;;;2.20;1.30;;;;;;;;;;5071658;28;20315;-76
2023/02/25 10:20:43;;;;;;;3.95;1.65;;;;;;;;;;5071227;28;20029;-77
2023/02/25 10:23:09;;;;;;;2.90;1.30;;;;;;;;;;5071173;28;20608;-78
2023/02/25 10:25:41;;;;;;;2.63;2.08;;;;;;;;;;5052982;28;20067;-77
2023/02/25 10:28:11;;;;;;;1.85;1.40;;;;;;;;;;5071158;28;20032;-77
2023/02/25 10:30:37;;;;;;;2.95;1.75;;;;;;;;;;5053118;28;20021;-77
2023/02/25 10:33:06;;;;;;;2.63;1.58;;;;;;;;;;5071253;28;20028;-78
2023/02/25 10:35:33;;;;;;;1.88;1.40;;;;;;;;;;5070988;28;20021;-78
2023/02/25 10:37:59;;;;;;;4.40;1.60;;;;;;;;;;5063081;28;20495;-78
2023/02/25 10:40:29;;;;;;;2.53;1.40;;;;;;;;;;5069357;28;20025;-77
2023/02/25 10:42:59;;;;;;;2.65;1.95;;;;;;;;;;5051816;28;20025;-76
2023/02/25 10:45:29;;;;;;;2.38;1.30;;;;;;;;;;5074504;28;20027;-77
2023/02/25 10:48:00;;;;;;;2.00;1.60;;;;;;;;;;5072855;28;20032;-78
2023/02/25 10:50:26;;;;;;;;;;;;;;;;;;5056921;28;20104;-77
2023/02/25 10:53:00;;;;;;;4.80;1.45;;;;;;;;;;5057342;28;19943;-77
2023/02/25 10:55:51;;;;;;;3.22;1.50;;;;;;;;;;5055278;28;20017;-77
2023/02/25 10:58:20;;;;;;;2.92;1.70;;;;;;;;;;5057791;28;20025;-77
2023/02/25 11:00:55;;;;;;;1.83;1.30;;;;;;;;;;5060072;28;20025;-76
2023/02/25 11:03:23;;;;;;;1.73;1.40;;;;;;;;;;5041025;28;20020;-75
2023/02/25 11:05:49;;;;;;;5.50;1.70;;;;;;;;;;5039978;28;20032;-76
2023/02/25 11:08:26;;;;;;;2.83;1.92;;;;;;;;;;5055028;28;20112;-76
2023/02/25 11:11:13;;;;;;;1.83;1.73;;;;;;;;;;5054675;28;20032;-77
2023/02/25 11:13:39;;;;;;;2.40;1.70;;;;;;;;;;5054896;28;20108;-77
2023/02/25 11:16:09;;;;;;;2.80;1.65;;;;;;;;;;5055021;28;20021;-76
2023/02/25 11:18:37;;;;;;;2.78;2.17;;;;;;;;;;5054170;28;20071;-77
2023/02/25 11:21:07;;;;;;;3.08;2.30;;;;;;;;;;5054520;28;20035;-77
2023/02/25 11:23:42;;;;;;;3.28;2.20;;;;;;;;;;5054386;28;20031;-77
2023/02/25 11:26:13;;;;;;;3.50;2.15;;;;;;;;;;5054997;28;20032;-77
2023/02/25 11:28:40;;;;;;;;;;;;;;;;;;5054419;28;20071;-77
2023/02/25 11:31:06;;;;;;;2.83;2.03;;;;;;;;;;5036335;28;20015;-77
2023/02/25 11:33:34;;;;;;;3.63;2.45;;;;;;;;;;5054036;28;20486;-76
2023/02/25 11:36:00;;;;;;;3.45;2.50;;;;;;;;;;5054035;28;20058;-77
2023/02/25 11:38:28;;;;;;;2.70;2.50;;;;;;;;;;5053779;28;20047;-76
2023/02/25 11:40:54;;;;;;;3.05;2.75;;;;;;;;;;5054107;28;20055;-76
2023/02/25 11:43:24;;;;;;;4.00;3.05;;;;;;;;;;5053940;28;20052;-77
2023/02/25 11:46:01;;;;;;;4.07;2.75;;;;;;;;;;5053963;28;20021;-77
2023/02/25 11:48:27;;;;;;;6.07;3.22;;;;;;;;;;5053613;28;20086;-76
2023/02/25 11:50:53;;;;;;;3.38;2.72;;;;;;;;;;5054068;28;20442;-76
2023/02/25 11:53:38;;;;;;;3.63;3.13;;;;;;;;;;5073957;28;20444;-76
2023/02/25 11:56:33;;;;;;;7.00;3.50;;;;;;;;;;5073203;28;20493;-75
2023/02/25 11:59:18;;;;;;;3.85;3.17;;;;;;;;;;5052313;28;20086;-76
2023/02/25 12:01:44;;;;;;;3.72;2.80;;;;;;;;;;5073865;28;20032;-76
2023/02/25 12:04:12;;;;;;;4.28;3.00;;;;;;;;;;5073499;28;20085;-76
2023/02/25 12:06:40;;;;;;;5.05;3.47;;;;;;;;;;5073536;28;20033;-76
2023/02/25 12:09:24;;;;;;;4.60;3.00;;;;;;;;;;5073410;28;20024;-76
2023/02/25 12:12:08;;;;;;;4.93;3.00;;;;;;;;;;5073365;28;20035;-76
2023/02/25 12:14:37;;;;;;;3.80;2.58;;;;;;;;;;5073831;28;20024;-77
2023/02/25 12:17:03;;;;;;;3.00;2.40;;;;;;;;;;5073685;28;20394;-74
2023/02/25 12:19:48;;;;;;;2.20;1.90;;;;;;;;;;5073555;28;20082;-76
2023/02/25 12:22:41;;;;;;;2.33;2.13;;;;;;;;;;5074377;28;20043;-76
2023/02/25 12:25:24;;;;;;;2.55;2.35;;;;;;;;;;5073857;28;20103;-76
2023/02/25 12:28:09;;;;;;;6.57;2.13;;;;;;;;;;5073188;28;20024;-77
2023/02/25 12:30:44;;;;;;;2.85;2.28;;;;;;;;;;5073353;28;20501;-76
2023/02/25 12:33:30;;;;;;;2.03;1.83;;;;;;;;;;5055424;28;20035;-77
2023/02/25 12:36:02;;;;;;;2.55;2.00;;;;;;;;;;5073915;28;20029;-76
2023/02/25 12:38:47;;;;;;;2.75;2.05;;;;;;;;;;5073538;28;20025;-77
2023/02/25 12:41:13;;;;;;;2.33;2.13;;;;;;;;;;5073243;28;20112;-77
2023/02/25 12:43:44;;;;;;;3.97;1.95;;;;;;;;;;5054985;28;20115;-76
2023/02/25 12:46:14;;;;;;;3.40;1.75;;;;;;;;;;5073445;28;20024;-76
2023/02/25 12:48:43;;;;;;;3.67;1.60;;;;;;;;;;5072370;28;20028;-75
2023/02/25 12:51:20;;;;;;;1.55;1.45;;;;;;;;;;5070041;28;20099;-75
2023/02/25 12:54:06;;;;;;;1.58;1.48;;;;;;;;;;5052941;28;20018;-75
2023/02/25 12:56:53;;;;;;;2.45;1.88;;;;;;;;;;5052782;28;20099;-74
2023/02/25 12:59:28;;;;;;;2.67;1.45;;;;;;;;;;5031452;28;20258;-75
2023/02/25 13:02:00;;;;;;;3.00;1.85;;;;;;;;;;5034313;28;20082;-76
2023/02/25 13:04:29;;;;;;;2.80;1.40;;;;;;;;;;5052561;28;20046;-76
2023/02/25 13:07:04;;;;;;;2.63;1.25;;;;;;;;;;5051684;28;20029;-76
2023/02/25 13:09:36;;;;;;;1.30;1.17;;;;;;;;;;5052247;28;20514;-76
2023/02/25 13:12:08;;;;;;;1.88;1.42;;;;;;;;;;5052109;28;20402;-76
2023/02/25 13:14:43;;;;;;;2.33;1.60;;;;;;;;;;5052154;28;20074;-75
2023/02/25 13:17:34;;;;;;;1.23;1.13;;;;;;;;;;5052266;28;20356;-76
2023/02/25 13:20:00;;;;;;;1.92;1.60;;;;;;;;;;5046673;28;20090;-75
2023/02/25 13:22:29;;;;;;;2.08;1.85;;;;;;;;;;5033806;28;20033;-76
2023/02/25 13:24:58;;;;;;;1.60;1.30;;;;;;;;;;5052165;28;20036;-76
2023/02/25 13:27:56;;;;;;;3.10;1.75;;;;;;;;;;5051904;28;20090;-77
2023/02/25 13:30:56;;;;;;;2.38;1.35;;;;;;;;;;5029139;28;20033;-77
2023/02/25 13:33:25;;;;;;;2.88;1.88;;;;;;;;;;5029639;28;20028;-76
2023/02/25 13:36:10;;;;;;;1.42;1.33;;;;;;;;;;5051821;28;20029;-76
2023/02/25 13:38:48;;;;;;;2.17;1.65;;;;;;;;;;5051531;28;20032;-76
2023/02/25 13:41:34;;;;;;;1.92;1.30;;;;;;;;;;5051770;28;20480;-75
2023/02/25 13:44:12;;;;;;;2.17;1.85;;;;;;;;;;5030484;28;20048;-76
2023/02/25 13:46:46;;;;;;;2.55;1.55;;;;;;;;;;5051780;28;20104;-77
2023/02/25 13:49:15;;;;;;;2.88;1.48;;;;;;;;;;5051508;28;20017;-77
2023/02/25 13:51:56;;;;;;;2.20;1.40;;;;;;;;;;5058576;28;20414;-76
2023/02/25 13:54:22;;;;;;;0.85;0.80;;;;;;;;;;5071602;28;20033;-76
2023/02/25 13:57:03;;;;;;;1.52;1.20;;;;;;;;;;5071598;28;20633;-77
2023/02/25 13:59:47;;;;;;;1.50;1.10;;;;;;;;;;5071633;28;20095;-74
2023/02/25 14:02:13;;;;;;;0.80;0.80;;;;;;;;;;5071702;28;20107;-74
2023/02/25 14:05:04;;;;;;;1.10;0.95;;;;;;;;;;5071439;28;20132;-76
2023/02/25 14:07:42;;;;;;;1.52;1.10;;;;;;;;;;5070854;28;20028;-76
2023/02/25 14:10:26;;;;;;;0.90;0.80;;;;;;;;;;5071356;28;20317;-77
2023/02/25 14:13:04;;;;;;;1.40;1.00;;;;;;;;;;5071183;28;20020;-77
2023/02/25 14:15:30;;;;;;;4.40;0.95;;;;;;;;;;5071603;28;20032;-77
2023/02/25 14:18:15;;;;;;;1.70;1.23;;;;;;;;;;5070887;28;20509;-76
2023/02/25 14:20:56;;;;;;;1.15;1.05;;;;;;;;;;5071411;28;20063;-77
2023/02/25 14:23:25;;;;;;;1.08;0.98;;;;;;;;;;5071038;28;20123;-77
2023/02/25 14:26:00;;;;;;;2.75;0.90;;;;;;;;;;5071417;28;20086;-76
2023/02/25 14:28:29;;;;;;;2.42;0.95;;;;;;;;;;5052807;28;20542;-79
2023/02/25 14:31:03;;;;;;;2.38;0.88;;;;;;;;;;5071345;28;20048;-78
2023/02/25 14:33:29;;;;;;;1.27;0.90;;;;;;;;;;5071127;28;20024;-78
2023/02/25 14:35:58;;;;;;;0.28;0.28;;;;;;;;;;5071586;28;20047;-79
2023/02/25 14:38:42;;;;;;;0.98;0.60;;;;;;;;;;5070746;28;20097;-76
2023/02/25 14:41:28;;;;;;;2.00;0.80;;;;;;;;;;5071269;28;20393;-76
2023/02/25 14:43:57;;;;;;;1.30;1.15;;;;;;;;;;5036170;28;20135;-76
2023/02/25 14:46:29;;;;;;;1.30;1.10;;;;;;;;;;5071145;28;20021;-77
2023/02/25 14:49:01;;;;;;;1.60;1.00;;;;;;;;;;5070680;28;20043;-75
2023/02/25 14:51:36;;;;;;;1.00;0.90;;;;;;;;;;5069722;28;20017;-76
2023/02/25 14:54:21;;;;;;;2.08;1.13;;;;;;;;;;5068861;28;20421;-75